Time;durP1;ratioP1;P1;durP2;ratioP2;P2;SDS_P1;SDS_P2;PMS_P1;PMS_P2;Temp;Humidity;BMP_temperature;BMP_pressure;BME280_temperature;BME280_humidity;BME280_pressure;Samples;Min_cycle;Max_cycle;Signal;HPM_P1;HPM_P2
2023/10/24 00:00:16;;;;;;;18.23;8.48;;;5.80;99.90;;;;;;4991327;28;20113;-76
2023/10/24 00:02:42;;;;;;;14.55;9.07;;;5.80;99.90;;;;;;4995682;28;20038;-76
2023/10/24 00:05:08;;;;;;;13.93;8.00;;;5.80;99.90;;;;;;4993935;28;20069;-76
2023/10/24 00:07:34;;;;;;;15.77;8.13;;;5.70;99.90;;;;;;4992941;28;20023;-80
2023/10/24 00:10:01;;;;;;;12.98;7.85;;;5.70;99.90;;;;;;4997817;28;20028;-80
2023/10/24 00:12:27;;;;;;;15.90;8.82;;;5.70;99.90;;;;;;4991075;28;20022;-80
2023/10/24 00:14:55;;;;;;;17.38;8.80;;;5.70;99.90;;;;;;4988228;28;20030;-80
2023/10/24 00:17:21;;;;;;;12.60;7.68;;;5.70;99.90;;;;;;4989657;28;20023;-80
2023/10/24 00:19:47;;;;;;;14.23;8.00;;;5.70;99.90;;;;;;4997795;28;20073;-79
2023/10/24 00:22:13;;;;;;;15.30;8.00;;;5.70;99.90;;;;;;4989906;28;20105;-79
2023/10/24 00:24:38;;;;;;;10.52;7.03;;;5.70;99.90;;;;;;4988508;28;20530;-79
2023/10/24 00:27:04;;;;;;;13.15;7.65;;;5.70;99.90;;;;;;4995601;28;20100;-80
2023/10/24 00:29:29;;;;;;;9.63;6.90;;;5.80;99.90;;;;;;5000467;28;20082;-81
2023/10/24 00:31:55;;;;;;;12.30;6.85;;;5.80;99.90;;;;;;4993716;28;20014;-80
2023/10/24 00:34:21;;;;;;;10.30;6.63;;;5.80;99.90;;;;;;4992355;28;20057;-81
2023/10/24 00:36:46;;;;;;;10.40;5.72;;;5.90;99.90;;;;;;4998177;28;20023;-81
2023/10/24 00:39:12;;;;;;;11.55;6.63;;;5.90;99.90;;;;;;4992804;28;20407;-77
2023/10/24 00:41:38;;;;;;;12.23;8.23;;;5.90;99.90;;;;;;4993060;28;20019;-77
2023/10/24 00:44:06;;;;;;;9.43;6.07;;;5.90;99.90;;;;;;4994178;28;20022;-76
2023/10/24 00:46:37;;;;;;;9.55;6.05;;;6.00;99.90;;;;;;4990008;28;20027;-76
2023/10/24 00:49:03;;;;;;;11.18;6.35;;;6.00;99.90;;;;;;4988198;28;20014;-76
2023/10/24 00:51:29;;;;;;;10.02;5.68;;;6.00;99.90;;;;;;4987894;28;20061;-76
2023/10/24 00:53:56;;;;;;;9.07;6.60;;;6.00;99.90;;;;;;4987976;28;20387;-76
2023/10/24 00:56:22;;;;;;;7.63;5.30;;;6.00;99.90;;;;;;5003923;28;20118;-76
2023/10/24 00:58:50;;;;;;;10.02;5.55;;;6.00;99.90;;;;;;4989219;28;20026;-76
2023/10/24 01:01:16;;;;;;;9.23;5.15;;;6.00;99.90;;;;;;4989448;28;20376;-76
2023/10/24 01:03:43;;;;;;;10.23;5.25;;;6.00;99.90;;;;;;4988041;28;20032;-76
2023/10/24 01:06:09;;;;;;;9.85;5.78;;;6.00;99.90;;;;;;4988981;28;20542;-76
2023/10/24 01:08:35;;;;;;;9.02;5.65;;;6.00;99.90;;;;;;4991815;28;20023;-76
2023/10/24 01:11:02;;;;;;;9.30;5.10;;;6.10;99.90;;;;;;4988782;28;20137;-77
2023/10/24 01:13:28;;;;;;;8.23;5.22;;;6.10;99.90;;;;;;4993125;28;20026;-76
2023/10/24 01:15:53;;;;;;;9.00;5.13;;;6.10;99.90;;;;;;4991870;28;20033;-76
2023/10/24 01:18:19;;;;;;;8.07;4.82;;;6.10;99.90;;;;;;4990245;28;20106;-76
2023/10/24 01:20:45;;;;;;;8.38;4.93;;;6.10;99.90;;;;;;4991041;28;20034;-76
2023/10/24 01:23:10;;;;;;;7.35;5.22;;;6.10;99.90;;;;;;4989999;28;20030;-76
2023/10/24 01:25:39;;;;;;;8.60;4.43;;;6.20;99.90;;;;;;4987435;28;20034;-76
2023/10/24 01:28:06;;;;;;;13.43;4.75;;;6.20;99.90;;;;;;4988752;28;20029;-76
2023/10/24 01:30:33;;;;;;;8.52;4.47;;;6.30;99.90;;;;;;4992356;28;20053;-76
2023/10/24 01:32:59;;;;;;;7.78;4.47;;;6.30;99.90;;;;;;4991595;28;20019;-76
2023/10/24 01:35:25;;;;;;;8.10;4.55;;;6.30;99.90;;;;;;4992875;28;20034;-76
2023/10/24 01:37:50;;;;;;;8.00;4.25;;;6.40;99.90;;;;;;4994545;28;20026;-76
2023/10/24 01:40:16;;;;;;;7.78;4.35;;;6.40;99.90;;;;;;4996504;28;20041;-76
2023/10/24 01:42:42;;;;;;;7.50;4.13;;;6.50;99.90;;;;;;4991524;28;20035;-76
2023/10/24 01:45:08;;;;;;;8.40;4.32;;;6.50;99.90;;;;;;4997873;28;20437;-75
2023/10/24 01:47:33;;;;;;;8.43;4.13;;;6.40;99.90;;;;;;4993608;28;20019;-76
2023/10/24 01:49:59;;;;;;;5.78;4.20;;;6.50;99.90;;;;;;5005538;28;20078;-76
2023/10/24 01:52:25;;;;;;;5.35;3.88;;;6.50;99.90;;;;;;4994507;28;20019;-76
2023/10/24 01:54:50;;;;;;;9.30;4.55;;;6.50;99.90;;;;;;4995376;28;20027;-75
2023/10/24 01:57:17;;;;;;;9.15;4.20;;;6.50;99.90;;;;;;5010939;28;20026;-75
2023/10/24 01:59:42;;;;;;;8.77;4.35;;;6.50;99.90;;;;;;4990231;28;20058;-75
2023/10/24 02:02:08;;;;;;;5.82;4.35;;;6.50;99.90;;;;;;4990961;28;20057;-75
2023/10/24 02:04:34;;;;;;;7.28;4.43;;;6.50;99.90;;;;;;4991836;28;20026;-75
2023/10/24 02:07:00;;;;;;;7.65;4.65;;;6.50;99.90;;;;;;4990383;28;20521;-76
2023/10/24 02:09:27;;;;;;;7.35;4.72;;;6.50;99.90;;;;;;4991432;28;20475;-76
2023/10/24 02:11:53;;;;;;;10.73;5.00;;;6.50;99.90;;;;;;4990295;28;20023;-76
2023/10/24 02:14:18;;;;;;;11.90;4.55;;;6.60;99.90;;;;;;4994342;28;20042;-76
2023/10/24 02:16:44;;;;;;;8.95;5.50;;;6.50;99.90;;;;;;4992250;28;20030;-76
2023/10/24 02:19:10;;;;;;;7.78;5.10;;;6.60;99.90;;;;;;4993057;28;20026;-76
2023/10/24 02:21:35;;;;;;;11.95;6.03;;;6.60;99.90;;;;;;4996240;28;20499;-76
2023/10/24 02:24:01;;;;;;;10.80;6.18;;;6.70;99.90;;;;;;4993523;28;20391;-75
2023/10/24 02:26:27;;;;;;;8.93;6.00;;;6.70;99.90;;;;;;4977799;28;20051;-76
2023/10/24 02:28:52;;;;;;;9.75;6.00;;;6.80;99.90;;;;;;4997579;28;20041;-76
2023/10/24 02:31:18;;;;;;;8.73;5.60;;;6.80;99.90;;;;;;4993433;28;20391;-77
2023/10/24 02:33:43;;;;;;;8.48;5.75;;;6.80;99.90;;;;;;4992214;28;20472;-75
2023/10/24 02:36:10;;;;;;;10.27;6.00;;;6.80;99.90;;;;;;4994521;28;20032;-76
2023/10/24 02:38:36;;;;;;;7.32;5.68;;;6.80;99.90;;;;;;4995490;28;20034;-75
2023/10/24 02:41:03;;;;;;;10.40;5.20;;;6.80;99.90;;;;;;4993417;28;20034;-76
2023/10/24 02:43:29;;;;;;;7.95;5.30;;;6.90;99.90;;;;;;4993852;28;20083;-76
2023/10/24 02:45:56;;;;;;;10.05;5.63;;;6.90;99.90;;;;;;4993694;28;20133;-76
2023/10/24 02:48:21;;;;;;;12.15;5.30;;;6.90;99.90;;;;;;4995557;28;20019;-75
2023/10/24 02:50:55;;;;;;;8.90;5.75;;;7.00;99.90;;;;;;4994668;28;20072;-75
2023/10/24 02:53:21;;;;;;;6.80;5.32;;;7.00;99.90;;;;;;4995274;28;20015;-76
2023/10/24 02:55:47;;;;;;;7.78;5.82;;;7.10;99.90;;;;;;5004687;28;20056;-76
2023/10/24 02:58:13;;;;;;;8.43;6.00;;;7.10;99.90;;;;;;4993143;28;20048;-76
2023/10/24 03:00:39;;;;;;;11.27;6.32;;;7.10;99.90;;;;;;4989915;28;20129;-76
2023/10/24 03:03:05;;;;;;;10.75;6.40;;;7.10;99.90;;;;;;4991077;28;20105;-76
2023/10/24 03:05:31;;;;;;;10.18;5.93;;;7.10;99.90;;;;;;5007240;28;20053;-76
2023/10/24 03:07:57;;;;;;;7.57;5.57;;;7.10;99.90;;;;;;4993835;28;20026;-76
2023/10/24 03:10:25;;;;;;;10.45;5.65;;;7.20;99.90;;;;;;4990243;28;20505;-76
2023/10/24 03:12:51;;;;;;;11.43;6.40;;;7.20;99.90;;;;;;4997197;28;20034;-76
2023/10/24 03:15:17;;;;;;;10.00;6.40;;;7.20;99.90;;;;;;5010932;28;20026;-77
2023/10/24 03:17:43;;;;;;;10.60;6.00;;;7.20;99.90;;;;;;4990421;28;20045;-76
2023/10/24 03:20:09;;;;;;;8.98;6.35;;;7.30;99.90;;;;;;4993952;28;20034;-76
2023/10/24 03:22:35;;;;;;;11.35;5.95;;;7.30;99.90;;;;;;4994142;28;20027;-76
2023/10/24 03:25:01;;;;;;;11.07;6.38;;;7.30;99.90;;;;;;4990919;28;20475;-76
2023/10/24 03:27:27;;;;;;;13.13;6.22;;;7.30;99.90;;;;;;4996746;28;20475;-75
2023/10/24 03:29:52;;;;;;;9.63;5.57;;;7.30;99.90;;;;;;4992212;28;20046;-76
2023/10/24 03:32:18;;;;;;;10.30;6.03;;;7.30;99.90;;;;;;4987928;28;20036;-76
2023/10/24 03:34:44;;;;;;;11.52;6.32;;;7.30;99.90;;;;;;4991872;28;20076;-75
2023/10/24 03:37:09;;;;;;;9.05;5.38;;;7.30;99.90;;;;;;4991164;28;20082;-75
2023/10/24 03:39:35;;;;;;;9.93;6.45;;;7.30;99.90;;;;;;4991249;28;20038;-75
2023/10/24 03:42:02;;;;;;;11.55;6.38;;;7.30;99.90;;;;;;4990561;28;20021;-75
2023/10/24 03:44:27;;;;;;;10.68;7.65;;;7.40;99.90;;;;;;4992593;28;20072;-75
2023/10/24 03:46:53;;;;;;;8.10;6.22;;;7.40;99.90;;;;;;4992894;28;20367;-75
2023/10/24 03:49:19;;;;;;;13.07;6.38;;;7.40;99.90;;;;;;4990490;28;20068;-75
2023/10/24 03:51:46;;;;;;;9.50;6.63;;;7.40;99.90;;;;;;4995803;28;20088;-75
2023/10/24 03:54:12;;;;;;;12.68;7.47;;;7.40;99.90;;;;;;4992240;28;20109;-75
2023/10/24 03:56:38;;;;;;;10.40;6.90;;;7.40;99.90;;;;;;5003912;28;20034;-75
2023/10/24 03:59:04;;;;;;;16.45;7.30;;;7.40;99.90;;;;;;4989322;28;20087;-76
2023/10/24 04:01:30;;;;;;;9.07;6.28;;;7.40;99.90;;;;;;4972871;28;20046;-75
2023/10/24 04:03:56;;;;;;;9.95;6.10;;;7.40;99.90;;;;;;4988845;28;20029;-75
2023/10/24 04:06:21;;;;;;;8.90;6.40;;;7.40;99.90;;;;;;5006006;28;20064;-75
2023/10/24 04:08:47;;;;;;;9.95;7.40;;;7.40;99.90;;;;;;4989560;28;20026;-75
2023/10/24 04:11:17;;;;;;;8.57;6.20;;;7.50;99.90;;;;;;4991404;28;20054;-75
2023/10/24 04:13:46;;;;;;;11.70;6.57;;;7.50;99.90;;;;;;5001322;28;20026;-74
2023/10/24 04:16:13;;;;;;;10.27;7.65;;;7.50;99.90;;;;;;4995396;28;20371;-74
2023/10/24 04:18:43;;;;;;;13.93;6.45;;;7.50;99.90;;;;;;4989858;28;20030;-75
2023/10/24 04:21:13;;;;;;;9.50;6.43;;;7.50;99.90;;;;;;4991544;28;20446;-76
2023/10/24 04:23:38;;;;;;;14.43;7.05;;;7.50;99.90;;;;;;4986729;28;20038;-76
2023/10/24 04:26:05;;;;;;;11.38;5.22;;;7.60;99.90;;;;;;4990529;28;20475;-76
2023/10/24 04:28:31;;;;;;;9.60;6.55;;;7.50;99.90;;;;;;4988506;28;20027;-76
2023/10/24 04:30:57;;;;;;;10.93;6.82;;;7.50;99.90;;;;;;4991458;28;20057;-77
2023/10/24 04:33:22;;;;;;;9.63;6.00;;;7.50;99.90;;;;;;4990862;28;20030;-76
2023/10/24 04:35:50;;;;;;;10.20;7.15;;;7.50;99.90;;;;;;4989067;28;20034;-76
2023/10/24 04:38:17;;;;;;;8.48;5.70;;;7.50;99.90;;;;;;4989232;28;20030;-76
2023/10/24 04:40:42;;;;;;;11.75;6.72;;;7.50;99.90;;;;;;4992100;28;20042;-75
2023/10/24 04:43:09;;;;;;;11.70;7.00;;;7.50;99.90;;;;;;4989740;28;20027;-76
2023/10/24 04:45:37;;;;;;;9.75;6.65;;;7.50;99.90;;;;;;4989927;28;20038;-76
2023/10/24 04:48:04;;;;;;;11.27;6.95;;;7.50;99.90;;;;;;5011465;28;20048;-76
2023/10/24 04:50:30;;;;;;;10.60;7.80;;;7.50;99.90;;;;;;5109048;28;20027;-76
2023/10/24 04:52:57;;;;;;;10.20;7.35;;;7.50;99.90;;;;;;5109416;28;20107;-75
2023/10/24 04:55:23;;;;;;;10.55;6.85;;;7.50;99.90;;;;;;5110745;28;20035;-76
2023/10/24 04:57:49;;;;;;;9.60;6.63;;;7.50;99.90;;;;;;5109475;28;20036;-76
2023/10/24 05:00:15;;;;;;;12.32;7.57;;;7.50;99.90;;;;;;5110759;28;20038;-75
2023/10/24 05:02:43;;;;;;;9.88;6.72;;;7.50;99.90;;;;;;5112824;28;20111;-76
2023/10/24 05:05:10;;;;;;;11.38;6.80;;;7.40;99.90;;;;;;5114711;28;20030;-76
2023/10/24 05:07:36;;;;;;;9.75;6.45;;;7.40;99.90;;;;;;5114407;28;20023;-76
2023/10/24 05:10:03;;;;;;;11.93;6.90;;;7.50;99.90;;;;;;5110237;28;20041;-77
2023/10/24 05:12:29;;;;;;;11.70;7.10;;;7.50;99.90;;;;;;5110744;28;20020;-77
2023/10/24 05:14:54;;;;;;;13.50;7.60;;;7.50;99.90;;;;;;5111943;28;20023;-77
2023/10/24 05:17:20;;;;;;;12.68;7.72;;;7.50;99.90;;;;;;5111055;28;20539;-77
2023/10/24 05:19:46;;;;;;;12.10;8.38;;;7.50;99.90;;;;;;5112038;28;20409;-77
2023/10/24 05:22:12;;;;;;;9.43;6.85;;;7.50;99.90;;;;;;5112192;28;20015;-77
2023/10/24 05:24:38;;;;;;;10.00;7.15;;;7.50;99.90;;;;;;5107012;28;20111;-77
2023/10/24 05:27:05;;;;;;;11.77;7.45;;;7.50;99.90;;;;;;5111923;28;20019;-77
2023/10/24 05:29:34;;;;;;;11.95;7.25;;;7.60;99.90;;;;;;5113132;28;20126;-77
2023/10/24 05:32:00;;;;;;;12.73;8.27;;;7.50;99.90;;;;;;5111065;28;20118;-78
2023/10/24 05:34:28;;;;;;;12.48;7.63;;;7.60;99.90;;;;;;5110068;28;20047;-77
2023/10/24 05:36:55;;;;;;;12.00;7.15;;;7.60;99.90;;;;;;5100302;28;20027;-81
2023/10/24 05:39:21;;;;;;;10.13;7.45;;;7.70;99.90;;;;;;5111084;28;20544;-81
2023/10/24 05:41:50;;;;;;;9.90;6.57;;;7.70;99.90;;;;;;5112548;28;20097;-81
2023/10/24 05:44:16;;;;;;;11.93;6.80;;;7.70;99.90;;;;;;5110515;28;20534;-81
2023/10/24 05:46:42;;;;;;;10.77;7.03;;;7.70;99.90;;;;;;5112560;28;20110;-81
2023/10/24 05:49:07;;;;;;;11.65;7.30;;;7.80;99.90;;;;;;5108480;28;20055;-81
2023/10/24 05:51:34;;;;;;;9.55;7.10;;;7.80;99.90;;;;;;5114342;28;20058;-81
2023/10/24 05:53:59;;;;;;;9.25;6.63;;;7.80;99.90;;;;;;5110914;28;20036;-81
2023/10/24 05:56:26;;;;;;;9.45;6.53;;;7.90;99.90;;;;;;5114748;27;20069;-81
2023/10/24 05:58:52;;;;;;;7.75;6.10;;;7.90;99.90;;;;;;5114727;28;20028;-81
2023/10/24 06:01:17;;;;;;;9.75;5.75;;;8.00;99.90;;;;;;5113415;28;20043;-77
2023/10/24 06:03:43;;;;;;;13.30;6.68;;;8.00;99.90;;;;;;5110988;28;20034;-81
2023/10/24 06:06:09;;;;;;;9.32;5.57;;;8.10;99.90;;;;;;5112475;28;20031;-78
2023/10/24 06:08:35;;;;;;;9.75;7.57;;;8.10;99.90;;;;;;5110632;28;20016;-78
2023/10/24 06:11:03;;;;;;;8.88;6.05;;;8.20;99.90;;;;;;5112995;28;20027;-78
2023/10/24 06:13:29;;;;;;;14.45;6.97;;;8.20;99.90;;;;;;5111259;28;20358;-81
2023/10/24 06:16:04;;;;;;;9.07;6.88;;;8.20;99.90;;;;;;5112761;28;20023;-77
2023/10/24 06:18:30;;;;;;;10.32;7.20;;;8.20;99.90;;;;;;5113294;28;20015;-81
2023/10/24 06:20:56;;;;;;;14.30;8.43;;;8.30;99.90;;;;;;5114236;28;20039;-78
2023/10/24 06:23:23;;;;;;;13.98;8.45;;;8.40;99.90;;;;;;5141284;27;20019;-78
2023/10/24 06:25:48;;;;;;;10.77;8.27;;;8.40;99.90;;;;;;5112084;28;20054;-81
2023/10/24 06:28:14;;;;;;;10.32;7.45;;;8.60;99.90;;;;;;5107667;28;20047;-81
2023/10/24 06:30:39;;;;;;;12.07;7.55;;;8.70;99.90;;;;;;5114896;28;20047;-81
2023/10/24 06:33:05;;;;;;;11.52;7.53;;;8.80;99.90;;;;;;5142350;27;20058;-81
2023/10/24 06:35:31;;;;;;;11.27;6.82;;;8.90;99.90;;;;;;5115047;28;20050;-81
2023/10/24 06:37:56;;;;;;;13.73;7.80;;;9.00;99.90;;;;;;5113587;28;20047;-78
2023/10/24 06:40:22;;;;;;;10.65;7.30;;;9.10;99.90;;;;;;5107851;28;20547;-81
2023/10/24 06:42:49;;;;;;;10.82;6.70;;;9.10;99.90;;;;;;5107490;28;20099;-78
2023/10/24 06:45:16;;;;;;;15.30;8.15;;;9.20;99.90;;;;;;5106679;28;20046;-78
2023/10/24 06:47:41;;;;;;;13.35;6.43;;;9.20;99.90;;;;;;5113468;28;20024;-81
2023/10/24 06:50:07;;;;;;;9.00;7.20;;;9.30;99.90;;;;;;5114627;28;20080;-81
2023/10/24 06:52:34;;;;;;;9.48;7.32;;;9.30;99.90;;;;;;5113448;28;20065;-80
2023/10/24 06:55:00;;;;;;;10.23;7.50;;;9.40;99.90;;;;;;5113278;28;20039;-78
2023/10/24 06:57:26;;;;;;;10.50;7.13;;;9.50;99.90;;;;;;5113176;28;20012;-79
2023/10/24 06:59:52;;;;;;;11.90;7.30;;;9.50;99.90;;;;;;5114172;28;20093;-81
2023/10/24 07:02:18;;;;;;;11.80;7.70;;;9.60;99.90;;;;;;5113408;28;20058;-81
2023/10/24 07:04:43;;;;;;;13.80;7.80;;;9.70;99.90;;;;;;5114368;28;20099;-78
2023/10/24 07:07:09;;;;;;;12.38;7.88;;;9.80;99.90;;;;;;5113222;28;20024;-81
2023/10/24 07:09:35;;;;;;;12.02;7.60;;;9.90;99.90;;;;;;5114229;28;20027;-81
2023/10/24 07:12:01;;;;;;;12.07;8.13;;;10.00;99.90;;;;;;5114973;28;20107;-81
2023/10/24 07:14:26;;;;;;;12.82;8.07;;;10.10;99.90;;;;;;5112834;28;20118;-78
2023/10/24 07:16:52;;;;;;;12.68;7.60;;;10.20;99.90;;;;;;5112854;28;20490;-78
2023/10/24 07:19:18;;;;;;;11.63;7.50;;;10.30;99.90;;;;;;5112140;28;20460;-78
2023/10/24 07:21:44;;;;;;;12.55;7.60;;;10.50;99.90;;;;;;5113029;28;20203;-78
2023/10/24 07:24:10;;;;;;;14.77;6.60;;;10.60;99.90;;;;;;5112178;28;20081;-78
2023/10/24 07:26:35;;;;;;;11.07;7.47;;;10.80;99.90;;;;;;5145292;27;20019;-78
2023/10/24 07:29:02;;;;;;;9.25;6.43;;;10.90;99.90;;;;;;5112205;28;20019;-78
2023/10/24 07:31:27;;;;;;;11.90;6.97;;;11.10;99.90;;;;;;5114080;28;20034;-82
2023/10/24 07:33:53;;;;;;;10.27;7.35;;;11.10;99.90;;;;;;5113823;28;20024;-78
2023/10/24 07:36:19;;;;;;;10.10;6.93;;;11.20;99.90;;;;;;5113793;28;20049;-78
2023/10/24 07:38:44;;;;;;;7.82;5.88;;;11.30;99.90;;;;;;5112323;28;20381;-78
2023/10/24 07:41:10;;;;;;;11.43;5.93;;;11.50;99.90;;;;;;5113784;28;20039;-81
2023/10/24 07:43:37;;;;;;;8.10;5.78;;;11.70;99.90;;;;;;5114950;28;20511;-81
2023/10/24 07:46:03;;;;;;;7.18;5.20;;;11.90;99.90;;;;;;5112524;28;20090;-78
2023/10/24 07:48:28;;;;;;;13.20;6.65;;;12.10;99.90;;;;;;5112397;28;20020;-82
2023/10/24 07:50:56;;;;;;;8.32;4.90;;;12.10;99.90;;;;;;5112350;28;20011;-82
2023/10/24 07:53:23;;;;;;;7.03;4.50;;;12.10;99.90;;;;;;5113190;28;20099;-78
2023/10/24 07:55:49;;;;;;;6.93;5.00;;;12.20;99.90;;;;;;5112387;28;20040;-77
2023/10/24 07:58:18;;;;;;;6.82;4.82;;;12.30;99.90;;;;;;5113290;28;20036;-78
2023/10/24 08:00:45;;;;;;;7.85;4.68;;;12.50;99.90;;;;;;5113539;28;20088;-82
2023/10/24 08:03:16;;;;;;;6.30;4.57;;;12.60;99.90;;;;;;5113206;28;20376;-82
2023/10/24 08:05:42;;;;;;;6.20;3.95;;;12.80;99.90;;;;;;5112124;28;20480;-78
2023/10/24 08:08:08;;;;;;;8.95;4.75;;;12.90;99.90;;;;;;5111903;28;20016;-82
2023/10/24 08:10:34;;;;;;;6.13;4.22;;;13.00;99.90;;;;;;5112087;28;20016;-82
2023/10/24 08:13:00;;;;;;;5.13;4.20;;;13.10;99.90;;;;;;5111863;28;20096;-79
2023/10/24 08:15:27;;;;;;;5.68;4.07;;;13.20;99.90;;;;;;5111309;28;20027;-78
2023/10/24 08:17:53;;;;;;;8.75;4.60;;;13.30;99.90;;;;;;5111668;28;20511;-78
2023/10/24 08:20:19;;;;;;;7.32;4.35;;;13.40;99.90;;;;;;5113598;28;20039;-78
2023/10/24 08:22:46;;;;;;;6.00;3.78;;;13.50;99.90;;;;;;5107272;28;20504;-82
2023/10/24 08:25:11;;;;;;;9.38;3.97;;;13.60;99.90;;;;;;5106242;28;20103;-78
2023/10/24 08:27:37;;;;;;;8.05;3.90;;;13.70;99.90;;;;;;5113032;28;20091;-82
2023/10/24 08:30:03;;;;;;;5.13;3.28;;;13.80;99.90;;;;;;5112842;28;20056;-82
2023/10/24 08:32:29;;;;;;;7.20;3.72;;;13.90;99.90;;;;;;5111731;28;20449;-78
2023/10/24 08:34:55;;;;;;;4.15;3.13;;;14.00;99.90;;;;;;5111581;28;20049;-78
2023/10/24 08:37:21;;;;;;;5.00;3.40;;;14.10;99.90;;;;;;5114882;28;20066;-78
2023/10/24 08:39:48;;;;;;;5.10;3.25;;;14.20;99.90;;;;;;5115735;28;20046;-79
2023/10/24 08:42:14;;;;;;;4.68;3.10;;;14.30;99.90;;;;;;5117186;28;20069;-82
2023/10/24 08:44:45;;;;;;;6.15;2.88;;;14.50;99.90;;;;;;5115712;28;20023;-82
2023/10/24 08:47:13;;;;;;;6.00;3.17;;;14.60;99.90;;;;;;5115594;28;20110;-82
2023/10/24 08:49:39;;;;;;;7.45;3.03;;;14.70;99.90;;;;;;5115667;28;20030;-78
2023/10/24 08:52:05;;;;;;;6.13;2.70;;;14.80;99.90;;;;;;5116564;28;20028;-78
2023/10/24 08:54:32;;;;;;;3.67;2.15;;;14.80;99.90;;;;;;5116914;28;20020;-84
2023/10/24 08:57:02;;;;;;;4.20;2.25;;;14.80;97.80;;;;;;5116911;28;20476;-78
2023/10/24 08:59:33;;;;;;;4.97;2.75;;;14.90;95.80;;;;;;5115630;28;20012;-79
2023/10/24 09:01:59;;;;;;;4.05;2.50;;;14.90;95.20;;;;;;5117105;28;20126;-82
2023/10/24 09:04:25;;;;;;;5.13;2.65;;;15.00;98.20;;;;;;5116828;28;20022;-83
2023/10/24 09:06:50;;;;;;;4.68;3.00;;;15.00;96.60;;;;;;5116740;28;20020;-82
2023/10/24 09:09:16;;;;;;;4.68;2.80;;;15.10;95.00;;;;;;5115325;28;20019;-78
2023/10/24 09:11:59;;;;;;;3.75;2.55;;;15.20;94.20;;;;;;5116750;28;20023;-83
2023/10/24 09:14:28;;;;;;;3.72;2.65;;;15.20;91.00;;;;;;5116635;28;20452;-83
2023/10/24 09:16:55;;;;;;;3.33;2.92;;;15.20;88.60;;;;;;5116576;28;20108;-83
2023/10/24 09:19:25;;;;;;;4.03;3.00;;;15.20;88.70;;;;;;5116509;28;20027;-79
2023/10/24 09:21:52;;;;;;;4.00;2.92;;;15.30;90.30;;;;;;5115097;28;20038;-78
2023/10/24 09:24:19;;;;;;;5.65;2.83;;;15.30;89.30;;;;;;5115172;28;20102;-78
2023/10/24 09:26:56;;;;;;;4.85;2.60;;;15.30;89.80;;;;;;5116436;28;20434;-78
2023/10/24 09:29:27;;;;;;;5.70;2.97;;;15.30;89.10;;;;;;5114706;28;20435;-83
2023/10/24 09:31:53;;;;;;;4.85;3.13;;;15.30;89.00;;;;;;5116177;28;20106;-79
2023/10/24 09:34:19;;;;;;;2.58;2.38;;;15.40;91.40;;;;;;5115559;28;20381;-84
2023/10/24 09:36:46;;;;;;;6.03;2.75;;;15.40;91.70;;;;;;5114721;28;20024;-83
2023/10/24 09:39:13;;;;;;;3.30;2.95;;;15.40;87.60;;;;;;5114948;28;20073;-79
2023/10/24 09:41:43;;;;;;;5.00;3.25;;;15.40;89.30;;;;;;5114528;28;20032;-83
2023/10/24 09:44:10;;;;;;;2.88;2.20;;;15.50;88.10;;;;;;5116167;28;20023;-79
2023/10/24 09:46:36;;;;;;;8.80;2.90;;;15.50;88.50;;;;;;5115945;28;20031;-78
2023/10/24 09:49:06;;;;;;;5.00;2.97;;;15.60;88.40;;;;;;5117514;28;20019;-84
2023/10/24 09:51:35;;;;;;;6.80;5.03;;;15.70;86.60;;;;;;5114442;28;20019;-84
2023/10/24 09:54:03;;;;;;;3.40;2.53;;;15.80;89.00;;;;;;5114655;28;20042;-79
2023/10/24 09:56:29;;;;;;;4.60;2.90;;;15.80;87.80;;;;;;5114188;28;20567;-83
2023/10/24 09:58:55;;;;;;;4.05;2.38;;;15.90;86.20;;;;;;5114515;28;20047;-78
2023/10/24 10:01:22;;;;;;;4.63;2.20;;;15.90;83.90;;;;;;5114409;28;20503;-79
2023/10/24 10:03:50;;;;;;;2.65;2.40;;;15.80;82.90;;;;;;5114386;28;20069;-84
2023/10/24 10:06:17;;;;;;;4.55;2.65;;;15.90;87.10;;;;;;5114249;28;20016;-84
2023/10/24 10:08:44;;;;;;;4.55;3.08;;;16.00;87.90;;;;;;5114244;28;20020;-84
2023/10/24 10:11:10;;;;;;;3.55;2.97;;;16.00;88.00;;;;;;5115188;28;20031;-78
2023/10/24 10:13:55;;;;;;;6.55;3.05;;;16.00;87.00;;;;;;5114204;28;20111;-83
2023/10/24 10:16:45;;;;;;;6.45;3.00;;;16.00;85.60;;;;;;5115267;28;20031;-83
2023/10/24 10:19:36;;;;;;;4.47;2.55;;;16.10;86.10;;;;;;5114580;28;20415;-83
2023/10/24 10:22:49;;;;;;;2.85;1.90;;;16.10;85.60;;;;;;5109727;28;20044;-84
2023/10/24 10:25:36;;;;;;;3.40;2.10;;;16.10;83.30;;;;;;5110002;28;20165;-84
2023/10/24 10:28:02;;;;;;;5.07;2.50;;;16.20;86.60;;;;;;5107635;28;20034;-79
2023/10/24 10:30:43;;;;;;;4.28;2.85;;;16.30;83.30;;;;;;5110063;28;20040;-84
2023/10/24 10:33:22;;;;;;;4.45;3.00;;;16.40;86.50;;;;;;5115091;28;20020;-83
2023/10/24 10:36:05;;;;;;;5.07;3.22;;;16.40;87.90;;;;;;5113690;28;20433;-84
2023/10/24 10:38:35;;;;;;;7.30;3.80;;;16.40;88.90;;;;;;5114917;28;20016;-84
2023/10/24 10:41:23;;;;;;;6.20;3.92;;;16.50;89.00;;;;;;5113432;28;20043;-84
2023/10/24 10:43:58;;;;;;;6.20;4.65;;;16.50;87.20;;;;;;5092111;28;20542;-84
2023/10/24 10:46:27;;;;;;;6.70;4.47;;;16.50;90.20;;;;;;5113603;28;20019;-79
2023/10/24 10:49:04;;;;;;;4.63;3.67;;;16.50;88.20;;;;;;5113330;28;20054;-79
2023/10/24 10:51:32;;;;;;;4.38;3.30;;;16.40;87.30;;;;;;5113227;28;20076;-79
2023/10/24 10:54:05;;;;;;;7.03;3.10;;;16.50;87.90;;;;;;5114554;28;20024;-79
2023/10/24 10:56:35;;;;;;;4.75;3.55;;;16.40;85.80;;;;;;5113172;28;20429;-79
2023/10/24 10:59:24;;;;;;;6.05;4.05;;;16.50;84.50;;;;;;5113635;28;20028;-79
2023/10/24 11:02:28;;;;;;;5.43;3.35;;;16.40;86.80;;;;;;5114225;28;20073;-79
2023/10/24 11:04:54;;;;;;;5.90;3.78;;;16.40;89.20;;;;;;5114302;28;20016;-84
2023/10/24 11:07:52;;;;;;;3.90;2.88;;;16.20;89.30;;;;;;5109782;28;20480;-79
2023/10/24 11:10:18;;;;;;;4.10;2.45;;;16.10;90.10;;;;;;5113399;28;20073;-84
2023/10/24 11:12:48;;;;;;;4.18;3.08;;;16.00;88.00;;;;;;5114121;28;20030;-84
2023/10/24 11:15:17;;;;;;;3.90;2.50;;;16.00;90.70;;;;;;5112901;28;20099;-79
2023/10/24 11:17:43;;;;;;;4.32;2.47;;;16.00;86.60;;;;;;5114130;28;20043;-79
2023/10/24 11:20:10;;;;;;;4.10;2.38;;;16.10;88.30;;;;;;5114003;28;20031;-79
2023/10/24 11:22:36;;;;;;;3.42;2.25;;;16.10;86.30;;;;;;5112809;28;20027;-84
2023/10/24 11:25:12;;;;;;;3.47;2.83;;;16.10;86.30;;;;;;5114165;28;20055;-79
2023/10/24 11:27:39;;;;;;;3.97;2.35;;;16.10;88.30;;;;;;5112543;28;20102;-84
2023/10/24 11:30:06;;;;;;;5.00;2.85;;;16.10;86.60;;;;;;5113681;28;20127;-79
2023/10/24 11:32:33;;;;;;;4.60;2.90;;;16.10;87.70;;;;;;5113562;28;20028;-84
2023/10/24 11:34:58;;;;;;;4.30;2.25;;;16.20;88.10;;;;;;5112682;28;20024;-79
2023/10/24 11:37:24;;;;;;;2.75;2.35;;;16.20;85.00;;;;;;5112339;28;20016;-79
2023/10/24 11:39:50;;;;;;;5.82;2.45;;;16.10;84.20;;;;;;5117814;28;20023;-84
2023/10/24 11:42:16;;;;;;;3.20;2.50;;;16.20;86.00;;;;;;5114880;28;20414;-79
2023/10/24 11:44:41;;;;;;;3.10;2.60;;;16.30;86.10;;;;;;5110020;28;20015;-84
2023/10/24 11:47:16;;;;;;;2.72;2.42;;;16.40;86.30;;;;;;5113625;28;20054;-79
2023/10/24 11:49:45;;;;;;;3.67;2.40;;;16.40;86.00;;;;;;5112155;28;20028;-84
2023/10/24 11:52:11;;;;;;;2.40;2.20;;;16.40;85.60;;;;;;5113519;28;20019;-79
2023/10/24 11:54:41;;;;;;;4.60;2.83;;;16.50;85.00;;;;;;5111847;28;20031;-79
2023/10/24 11:57:07;;;;;;;2.40;2.20;;;16.60;84.90;;;;;;5113293;28;20074;-85
2023/10/24 11:59:37;;;;;;;3.75;2.75;;;16.60;84.50;;;;;;5111301;28;20470;-79
2023/10/24 12:02:03;;;;;;;3.72;2.67;;;16.60;83.30;;;;;;5097884;28;20045;-79
2023/10/24 12:04:30;;;;;;;4.45;2.80;;;16.70;84.30;;;;;;5106168;28;20412;-78
2023/10/24 12:07:25;;;;;;;6.07;2.92;;;16.60;85.20;;;;;;5110445;28;20453;-79
2023/10/24 12:09:51;;;;;;;5.00;3.70;;;16.60;87.30;;;;;;5097949;28;20032;-78
2023/10/24 12:12:16;;;;;;;4.82;3.45;;;16.70;92.10;;;;;;5107801;27;20096;-79
2023/10/24 12:14:43;;;;;;;5.68;2.72;;;16.70;95.30;;;;;;5107603;28;20039;-78
2023/10/24 12:17:09;;;;;;;4.43;3.45;;;16.70;93.90;;;;;;5102785;28;20047;-79
2023/10/24 12:19:35;;;;;;;5.82;3.85;;;16.80;95.80;;;;;;5109741;28;20016;-79
2023/10/24 12:22:01;;;;;;;5.65;3.80;;;16.70;96.10;;;;;;5111244;28;20032;-78
2023/10/24 12:24:27;;;;;;;7.70;3.85;;;16.60;97.60;;;;;;5105921;28;20106;-78
2023/10/24 12:26:53;;;;;;;3.50;3.20;;;16.40;93.50;;;;;;5105856;28;20034;-78
2023/10/24 12:29:18;;;;;;;4.78;3.60;;;16.40;97.60;;;;;;5104792;28;20052;-77
2023/10/24 12:31:45;;;;;;;6.03;3.92;;;16.30;98.50;;;;;;5105353;28;20051;-78
2023/10/24 12:34:12;;;;;;;14.95;5.10;;;16.20;99.90;;;;;;5110732;27;20032;-77
2023/10/24 12:36:38;;;;;;;5.25;4.30;;;16.20;99.90;;;;;;5098425;28;20123;-77
2023/10/24 12:39:04;;;;;;;7.07;4.53;;;16.10;99.90;;;;;;5109855;28;20114;-77
2023/10/24 12:41:29;;;;;;;6.43;4.47;;;16.00;99.90;;;;;;5110437;27;20047;-77
2023/10/24 12:43:55;;;;;;;7.55;4.32;;;16.00;99.90;;;;;;5110951;28;20023;-78
2023/10/24 12:46:21;;;;;;;5.82;4.90;;;16.00;99.90;;;;;;5102911;28;20111;-77
2023/10/24 12:48:47;;;;;;;7.65;5.38;;;15.80;99.90;;;;;;5110892;28;20027;-77